createdAt,value
2022-10-01T00:02:08.481Z,100515.31
2022-10-01T00:04:37.663Z,100512.69
2022-10-01T00:07:10.827Z,100508.25
2022-10-01T00:09:39.064Z,100518.09
2022-10-01T00:12:25.468Z,100511.50
2022-10-01T00:14:53.584Z,100515.75
2022-10-01T00:17:21.702Z,100503.97
2022-10-01T00:19:49.969Z,100504.94
2022-10-01T00:22:19.109Z,100503.78
2022-10-01T00:24:47.915Z,100497.72
2022-10-01T00:27:16.117Z,100493.25
2022-10-01T00:29:45.372Z,100483.53
2022-10-01T00:32:13.472Z,100489.81
2022-10-01T00:34:41.667Z,100484.38
2022-10-01T00:37:10.709Z,100483.41
2022-10-01T00:39:39.174Z,100485.19
2022-10-01T00:42:33.694Z,100488.19
2022-10-01T00:45:02.338Z,100488.69
2022-10-01T00:47:31.817Z,100493.63
2022-10-01T00:50:16.386Z,100502.38
2022-10-01T00:52:51.182Z,100503.69
2022-10-01T00:55:43.587Z,100504.50
2022-10-01T00:58:14.316Z,100506.97
2022-10-01T01:00:43.671Z,100500.38
2022-10-01T01:03:12.344Z,100512.88
2022-10-01T01:05:40.576Z,100508.91
2022-10-01T01:08:10.090Z,100514.13
2022-10-01T01:11:03.553Z,100510.31
2022-10-01T01:14:01.110Z,100511.78
2022-10-01T01:16:56.149Z,100518.97
2022-10-01T01:19:39.965Z,100519.50
2022-10-01T01:22:10.036Z,100517.31
2022-10-01T01:25:16.828Z,100525.03
2022-10-01T01:28:31.720Z,100518.22
2022-10-01T01:31:05.727Z,100528.41
2022-10-01T01:33:37.300Z,100539.09
2022-10-01T01:36:11.998Z,100527.34
2022-10-01T01:38:46.180Z,100529.25
2022-10-01T01:41:16.194Z,100535.81
2022-10-01T01:43:48.549Z,100526.97
2022-10-01T01:46:18.131Z,100527.59
2022-10-01T01:48:49.530Z,100527.22
2022-10-01T01:51:41.401Z,100527.69
2022-10-01T01:54:09.998Z,100532.97
2022-10-01T01:56:38.819Z,100532.28
2022-10-01T01:59:08.552Z,100529.44
2022-10-01T02:01:41.053Z,100524.91
2022-10-01T02:04:14.938Z,100530.94
2022-10-01T02:07:44.247Z,100525.75
2022-10-01T02:10:27.142Z,100532.94
2022-10-01T02:13:14.037Z,100532.81
2022-10-01T02:16:01.478Z,100527.78
2022-10-01T02:18:53.751Z,100523.13
2022-10-01T02:21:40.346Z,100529.78
2022-10-01T02:24:22.773Z,100535.13
2022-10-01T02:26:53.499Z,100525.78
2022-10-01T02:29:23.876Z,100525.41
2022-10-01T02:31:55.778Z,100526.00
2022-10-01T02:34:28.978Z,100531.56
2022-10-01T02:37:01.181Z,100522.97
2022-10-01T02:39:33.052Z,100516.91
2022-10-01T02:42:03.671Z,100513.03
2022-10-01T02:44:38.226Z,100511.78
2022-10-01T02:47:45.165Z,100509.28
2022-10-01T02:50:14.180Z,100513.19
2022-10-01T02:52:52.883Z,100504.50
2022-10-01T02:55:35.667Z,100502.00
2022-10-01T02:58:04.158Z,100506.16
2022-10-01T03:00:32.445Z,100494.97
2022-10-01T03:03:00.696Z,100504.66
2022-10-01T03:05:28.839Z,100501.34
2022-10-01T03:07:57.015Z,100500.94
2022-10-01T03:10:25.218Z,100510.25
2022-10-01T03:12:53.425Z,100516.75
2022-10-01T03:15:21.518Z,100519.13
2022-10-01T03:17:53.914Z,100531.06
2022-10-01T03:20:22.803Z,100536.59
2022-10-01T03:22:51.175Z,100532.34
2022-10-01T03:25:19.319Z,100541.75
2022-10-01T03:27:47.586Z,100539.13
2022-10-01T03:30:15.862Z,100532.50
2022-10-01T03:32:43.928Z,100527.41
2022-10-01T03:35:12.384Z,100534.06
2022-10-01T03:37:40.520Z,100541.13
2022-10-01T03:40:09.056Z,100540.69
2022-10-01T03:42:37.227Z,100543.88
2022-10-01T03:45:05.546Z,100533.91
2022-10-01T03:47:33.676Z,100540.28
2022-10-01T03:50:01.968Z,100534.56
2022-10-01T03:52:30.175Z,100544.06
2022-10-01T03:54:58.365Z,100547.09
2022-10-01T03:57:26.451Z,100543.66
2022-10-01T03:59:54.615Z,100542.84
2022-10-01T04:02:22.823Z,100550.97
2022-10-01T04:04:51.145Z,100555.81
2022-10-01T04:07:19.236Z,100550.84
2022-10-01T04:09:47.375Z,100539.66
2022-10-01T04:12:15.537Z,100543.25
2022-10-01T04:14:43.597Z,100546.84
2022-10-01T04:17:11.698Z,100540.53
2022-10-01T04:19:39.874Z,100544.69
2022-10-01T04:22:08.026Z,100551.28
2022-10-01T04:24:36.113Z,100552.84
2022-10-01T04:27:04.316Z,100550.47
2022-10-01T04:29:34.751Z,100543.31
2022-10-01T04:32:07.208Z,100544.97
2022-10-01T04:34:53.450Z,100548.03
2022-10-01T04:37:23.114Z,100547.47
2022-10-01T04:39:51.271Z,100547.63
2022-10-01T04:42:20.011Z,100548.56
2022-10-01T04:44:48.625Z,100546.75
2022-10-01T04:47:16.760Z,100539.03
2022-10-01T04:49:44.881Z,100539.72
2022-10-01T04:52:13.040Z,100529.25
2022-10-01T04:54:41.242Z,100533.53
2022-10-01T04:57:09.361Z,100535.31
2022-10-01T04:59:37.624Z,100526.06
2022-10-01T05:02:05.740Z,100529.94
2022-10-01T05:04:33.940Z,100531.72
2022-10-01T05:07:02.032Z,100522.31
2022-10-01T05:09:30.121Z,100527.72
2022-10-01T05:11:58.250Z,100524.41
2022-10-01T05:14:26.859Z,100535.44
2022-10-01T05:16:55.047Z,100539.72
2022-10-01T05:19:26.334Z,100534.91
2022-10-01T05:21:56.534Z,100531.72
2022-10-01T05:24:24.877Z,100531.13
2022-10-01T05:26:56.422Z,100536.22
2022-10-01T05:29:24.551Z,100533.91
2022-10-01T05:31:52.811Z,100540.78
2022-10-01T05:34:20.923Z,100546.97
2022-10-01T05:36:49.075Z,100559.41
2022-10-01T05:39:17.146Z,100566.00
2022-10-01T05:41:45.255Z,100565.09
2022-10-01T05:44:13.341Z,100564.53
2022-10-01T05:46:42.003Z,100565.19
2022-10-01T05:49:10.671Z,100570.06
2022-10-01T05:51:39.328Z,100578.72
2022-10-01T05:54:07.991Z,100575.97
2022-10-01T05:56:36.867Z,100578.91
2022-10-01T05:59:05.773Z,100586.50
2022-10-01T06:01:34.087Z,100584.16
2022-10-01T06:04:02.632Z,100590.53
2022-10-01T06:06:31.124Z,100594.53
2022-10-01T06:09:00.132Z,100602.50
2022-10-01T06:11:28.257Z,100610.25
2022-10-01T06:13:56.550Z,100624.75
2022-10-01T06:16:24.829Z,100622.94
2022-10-01T06:18:57.439Z,100626.41
2022-10-01T06:21:26.980Z,100618.97
2022-10-01T06:23:55.353Z,100628.66
2022-10-01T06:26:24.234Z,100625.91
2022-10-01T06:28:52.778Z,100627.84
2022-10-01T06:31:21.594Z,100632.25
2022-10-01T06:33:49.811Z,100642.47
2022-10-01T06:36:18.042Z,100646.47
2022-10-01T06:38:49.339Z,100639.81
2022-10-01T06:41:17.444Z,100646.91
2022-10-01T06:43:45.538Z,100653.22
2022-10-01T06:46:13.837Z,100649.09
2022-10-01T06:48:41.958Z,100649.06
2022-10-01T06:51:10.049Z,100642.25
2022-10-01T06:53:38.178Z,100636.56
2022-10-01T06:56:07.904Z,100640.81
2022-10-01T06:58:37.390Z,100641.56
2022-10-01T07:01:05.622Z,100643.56
2022-10-01T07:03:34.214Z,100643.91
2022-10-01T07:06:04.515Z,100645.03
2022-10-01T07:08:33.398Z,100655.34
2022-10-01T07:11:05.162Z,100657.84
2022-10-01T07:13:33.387Z,100651.00
2022-10-01T07:16:04.484Z,100655.47
2022-10-01T07:18:32.857Z,100660.50
2022-10-01T07:21:01.624Z,100657.63
2022-10-01T07:23:29.791Z,100644.94
2022-10-01T07:25:57.911Z,100648.59
2022-10-01T07:28:26.972Z,100640.22
2022-10-01T07:31:03.871Z,100636.44
2022-10-01T07:33:32.048Z,100637.47
2022-10-01T07:36:05.979Z,100640.75
2022-10-01T07:38:34.762Z,100641.59
2022-10-01T07:41:03.539Z,100639.03
2022-10-01T07:43:33.061Z,100641.56
2022-10-01T07:46:02.078Z,100643.28
2022-10-01T07:48:31.062Z,100645.75
2022-10-01T07:50:59.248Z,100635.69
2022-10-01T07:53:27.654Z,100636.63
2022-10-01T07:55:56.156Z,100642.06
2022-10-01T07:58:24.475Z,100637.25
2022-10-01T08:00:58.185Z,100638.09
2022-10-01T08:03:26.392Z,100630.47
2022-10-01T08:05:54.702Z,100632.53
2022-10-01T08:08:22.909Z,100642.22
2022-10-01T08:10:51.052Z,100644.22
2022-10-01T08:13:20.459Z,100653.44
2022-10-01T08:15:54.678Z,100657.19
2022-10-01T08:18:24.122Z,100657.97
2022-10-01T08:20:52.615Z,100656.34
2022-10-01T08:23:21.630Z,100662.69
2022-10-01T08:25:49.820Z,100654.25
2022-10-01T08:28:18.339Z,100653.41
2022-10-01T08:30:46.595Z,100654.78
2022-10-01T08:33:15.319Z,100655.56
2022-10-01T08:35:43.924Z,100657.72
2022-10-01T08:38:13.070Z,100658.44
2022-10-01T08:40:51.430Z,100659.97
2022-10-01T08:43:38.562Z,100650.31
2022-10-01T08:46:19.710Z,100651.63
2022-10-01T08:48:48.137Z,100653.69
2022-10-01T08:51:39.739Z,100654.91
2022-10-01T08:54:19.896Z,100657.63
2022-10-01T08:56:48.584Z,100668.41
2022-10-01T08:59:28.528Z,100666.72
2022-10-01T09:01:59.094Z,100669.47
2022-10-01T09:04:28.299Z,100669.47
2022-10-01T09:07:14.977Z,100677.53
2022-10-01T09:09:56.568Z,100665.06
2022-10-01T09:12:44.808Z,100666.91
2022-10-01T09:15:19.291Z,100671.75
2022-10-01T09:18:34.345Z,100673.09
2022-10-01T09:21:06.597Z,100676.28
2022-10-01T09:24:04.703Z,100679.91
2022-10-01T09:26:34.903Z,100676.44
2022-10-01T09:29:09.568Z,100679.84
2022-10-01T09:31:45.288Z,100664.75
2022-10-01T09:34:17.083Z,100663.19
2022-10-01T09:37:08.342Z,100658.78
2022-10-01T09:39:51.278Z,100652.75
2022-10-01T09:42:27.963Z,100654.09
2022-10-01T09:44:57.668Z,100663.34
2022-10-01T09:47:26.374Z,100661.72
2022-10-01T09:49:54.773Z,100651.03
2022-10-01T09:52:34.531Z,100648.94
2022-10-01T09:55:37.808Z,100643.91
2022-10-01T09:58:17.156Z,100644.09
2022-10-01T10:00:45.651Z,100644.75
2022-10-01T10:03:28.892Z,100636.88
2022-10-01T10:05:59.947Z,100635.22
2022-10-01T10:08:30.394Z,100631.47
2022-10-01T10:11:02.062Z,100626.47
2022-10-01T10:13:35.305Z,100628.69
2022-10-01T10:16:10.632Z,100620.00
2022-10-01T10:18:40.160Z,100618.41
2022-10-01T10:21:21.674Z,100611.09
2022-10-01T10:23:59.205Z,100608.78
2022-10-01T10:26:38.378Z,100599.47
2022-10-01T10:29:24.313Z,100597.50
2022-10-01T10:31:54.140Z,100588.84
2022-10-01T10:34:33.814Z,100594.22
2022-10-01T10:37:06.870Z,100599.31
2022-10-01T10:39:39.546Z,100603.63
2022-10-01T10:42:08.556Z,100596.97
2022-10-01T10:44:42.073Z,100591.94
2022-10-01T10:47:19.243Z,100593.22
2022-10-01T10:50:02.978Z,100590.19
2022-10-01T10:52:37.062Z,100591.81
2022-10-01T10:55:32.850Z,100586.06
2022-10-01T10:58:15.259Z,100585.81
2022-10-01T11:00:56.509Z,100580.84
2022-10-01T11:03:29.705Z,100590.56
2022-10-01T11:06:11.368Z,100593.75
2022-10-01T11:08:41.342Z,100589.38
2022-10-01T11:11:35.690Z,100592.47
2022-10-01T11:14:03.731Z,100572.75
2022-10-01T11:16:49.872Z,100567.91
2022-10-01T11:19:36.689Z,100563.47
2022-10-01T11:22:27.440Z,100564.13
2022-10-01T11:25:01.595Z,100561.41
2022-10-01T11:27:57.659Z,100573.34
2022-10-01T11:30:34.638Z,100571.31
2022-10-01T11:33:30.590Z,100579.31
2022-10-01T11:36:16.364Z,100588.16
2022-10-01T11:39:05.514Z,100588.91
2022-10-01T11:41:54.848Z,100593.47
2022-10-01T11:44:40.925Z,100588.84
2022-10-01T11:47:17.071Z,100582.47
2022-10-01T11:49:48.749Z,100580.50
2022-10-01T11:52:43.835Z,100580.06
2022-10-01T11:55:39.937Z,100576.63
2022-10-01T11:58:45.450Z,100563.34
2022-10-01T12:01:23.506Z,100564.19
2022-10-01T12:03:54.401Z,100552.84
2022-10-01T12:06:41.188Z,100560.38
2022-10-01T12:09:29.964Z,100558.38
2022-10-01T12:12:12.066Z,100545.53
2022-10-01T12:15:19.303Z,100541.81
2022-10-01T12:17:55.351Z,100552.59
2022-10-01T12:20:31.523Z,100550.19
2022-10-01T12:23:02.786Z,100543.03
2022-10-01T12:25:42.701Z,100537.25
2022-10-01T12:28:17.486Z,100537.19
2022-10-01T12:31:15.369Z,100544.28
2022-10-01T12:33:59.218Z,100533.94
2022-10-01T12:36:36.877Z,100523.50
2022-10-01T12:39:18.323Z,100519.59
2022-10-01T12:42:07.343Z,100518.88
2022-10-01T12:44:57.327Z,100522.53
2022-10-01T12:47:55.391Z,100529.47
2022-10-01T12:50:36.879Z,100528.91
2022-10-01T12:53:16.372Z,100527.78
2022-10-01T12:55:56.931Z,100523.56
2022-10-01T12:58:51.279Z,100521.22
2022-10-01T13:01:47.612Z,100514.00
2022-10-01T13:04:36.829Z,100523.06
2022-10-01T13:07:23.598Z,100500.38
2022-10-01T13:10:11.695Z,100493.13
2022-10-01T13:13:12.023Z,100484.06
2022-10-01T13:15:44.648Z,100489.84
2022-10-01T13:18:38.666Z,100489.25
2022-10-01T13:21:16.572Z,100483.69
2022-10-01T13:23:48.861Z,100481.25
2022-10-01T13:27:03.483Z,100492.28
2022-10-01T13:29:48.029Z,100480.09
2022-10-01T13:32:53.417Z,100478.63
2022-10-01T13:35:27.406Z,100471.69
2022-10-01T13:37:57.876Z,100478.91
2022-10-01T13:40:30.491Z,100477.69
2022-10-01T13:43:04.018Z,100482.91
2022-10-01T13:45:43.118Z,100473.06
2022-10-01T13:48:11.275Z,100468.09
2022-10-01T13:50:41.843Z,100463.75
2022-10-01T13:53:20.378Z,100463.78
2022-10-01T13:55:49.092Z,100455.00
2022-10-01T13:58:23.156Z,100454.63
2022-10-01T14:00:54.080Z,100452.63
2022-10-01T14:03:49.985Z,100462.53
2022-10-01T14:06:27.798Z,100467.66
2022-10-01T14:09:14.689Z,100461.88
2022-10-01T14:12:08.585Z,100456.13
2022-10-01T14:14:59.486Z,100457.38
2022-10-01T14:17:32.823Z,100455.88
2022-10-01T14:20:01.162Z,100447.72
2022-10-01T14:23:04.117Z,100440.34
2022-10-01T14:25:43.944Z,100446.09
2022-10-01T14:28:37.580Z,100437.06
2022-10-01T14:31:15.798Z,100432.31
2022-10-01T14:34:00.512Z,100435.53
2022-10-01T14:36:35.072Z,100432.00
2022-10-01T14:39:24.463Z,100434.44
2022-10-01T14:41:55.114Z,100429.69
2022-10-01T14:44:40.757Z,100424.97
2022-10-01T14:47:23.648Z,100434.81
2022-10-01T14:49:53.875Z,100427.03
2022-10-01T14:52:31.613Z,100423.94
2022-10-01T14:55:01.762Z,100427.03
2022-10-01T14:57:42.690Z,100415.88
2022-10-01T15:00:19.735Z,100416.22
2022-10-01T15:02:51.847Z,100414.19
2022-10-01T15:05:27.789Z,100416.94
2022-10-01T15:07:56.278Z,100413.06
2022-10-01T15:10:27.972Z,100420.88
2022-10-01T15:12:56.646Z,100416.41
2022-10-01T15:15:43.649Z,100412.75
2022-10-01T15:18:18.567Z,100422.56
2022-10-01T15:21:05.572Z,100418.91
2022-10-01T15:23:39.728Z,100425.81
2022-10-01T15:26:12.563Z,100423.06
2022-10-01T15:28:40.663Z,100409.50
2022-10-01T15:31:08.953Z,100409.84
2022-10-01T15:33:40.535Z,100414.13
2022-10-01T15:36:15.438Z,100414.28
2022-10-01T15:38:47.809Z,100424.22
2022-10-01T15:41:32.760Z,100425.25
2022-10-01T15:45:01.192Z,100414.56
2022-10-01T15:47:34.653Z,100418.25
2022-10-01T15:50:11.661Z,100414.28
2022-10-01T15:52:51.770Z,100427.72
2022-10-01T15:55:31.236Z,100422.78
2022-10-01T15:58:08.820Z,100425.06
2022-10-01T16:00:58.419Z,100424.25
2022-10-01T16:03:38.821Z,100429.28
2022-10-01T16:06:17.518Z,100427.66
2022-10-01T16:09:14.239Z,100418.88
2022-10-01T16:12:00.216Z,100423.22
2022-10-01T16:14:43.888Z,100429.63
2022-10-01T16:17:18.030Z,100419.56
2022-10-01T16:19:52.155Z,100419.56
2022-10-01T16:22:21.592Z,100409.31
2022-10-01T16:25:07.252Z,100400.81
2022-10-01T16:27:45.995Z,100408.59
2022-10-01T16:30:21.476Z,100425.59
2022-10-01T16:32:50.683Z,100426.72
2022-10-01T16:35:24.488Z,100429.44
2022-10-01T16:37:55.160Z,100441.22
2022-10-01T16:40:26.073Z,100445.44
2022-10-01T16:42:54.608Z,100434.56
2022-10-01T16:45:29.627Z,100429.34
2022-10-01T16:47:57.941Z,100428.78
2022-10-01T16:50:26.474Z,100431.34
2022-10-01T16:52:56.176Z,100423.47
2022-10-01T16:55:27.410Z,100429.22
2022-10-01T16:57:55.632Z,100439.53
2022-10-01T17:00:26.505Z,100448.34
2022-10-01T17:02:55.889Z,100450.56
2022-10-01T17:05:27.161Z,100449.88
2022-10-01T17:08:03.580Z,100455.38
2022-10-01T17:10:36.393Z,100458.59
2022-10-01T17:13:04.757Z,100449.22
2022-10-01T17:15:33.289Z,100452.09
2022-10-01T17:18:01.987Z,100467.00
2022-10-01T17:20:30.694Z,100468.03
2022-10-01T17:22:59.199Z,100478.97
2022-10-01T17:25:34.459Z,100475.50
2022-10-01T17:28:04.877Z,100484.28
2022-10-01T17:30:33.191Z,100492.22
2022-10-01T17:33:02.065Z,100502.63
2022-10-01T17:35:30.559Z,100493.91
2022-10-01T17:37:59.107Z,100497.88
2022-10-01T17:40:27.371Z,100495.09
2022-10-01T17:42:55.490Z,100512.56
2022-10-01T17:45:23.620Z,100517.69
2022-10-01T17:47:51.811Z,100518.84
2022-10-01T17:50:19.966Z,100518.66
2022-10-01T17:52:48.524Z,100511.09
2022-10-01T17:55:17.427Z,100509.25
2022-10-01T17:57:45.562Z,100512.41
2022-10-01T18:00:13.957Z,100504.66
2022-10-01T18:02:43.329Z,100500.69
2022-10-01T18:05:14.694Z,100509.94
2022-10-01T18:07:43.090Z,100528.06
2022-10-01T18:10:13.290Z,100540.28
2022-10-01T18:12:41.507Z,100528.75
2022-10-01T18:15:10.462Z,100547.06
2022-10-01T18:17:43.395Z,100561.41
2022-10-01T18:20:14.804Z,100563.88
2022-10-01T18:22:42.969Z,100550.81
2022-10-01T18:25:12.816Z,100570.28
2022-10-01T18:27:41.017Z,100575.72
2022-10-01T18:30:10.211Z,100565.47
2022-10-01T18:32:45.021Z,100567.47
2022-10-01T18:35:33.751Z,100570.75
2022-10-01T18:38:25.470Z,100582.44
2022-10-01T18:41:02.851Z,100589.50
2022-10-01T18:43:34.715Z,100569.69
2022-10-01T18:46:35.947Z,100572.16
2022-10-01T18:49:32.581Z,100562.75
2022-10-01T18:52:37.987Z,100564.09
2022-10-01T18:55:18.929Z,100579.72
2022-10-01T18:58:00.234Z,100580.53
2022-10-01T19:01:06.642Z,100585.91
2022-10-01T19:03:34.816Z,100583.25
2022-10-01T19:06:09.142Z,100591.28
2022-10-01T19:08:46.771Z,100580.53
2022-10-01T19:11:33.401Z,100584.16
2022-10-01T19:14:30.040Z,100590.06
2022-10-01T19:17:25.719Z,100596.00
2022-10-01T19:20:11.111Z,100599.53
2022-10-01T19:22:45.092Z,100594.84
2022-10-01T19:25:23.820Z,100595.47
2022-10-01T19:28:33.366Z,100602.97
2022-10-01T19:31:33.682Z,100606.34
2022-10-01T19:34:25.384Z,100611.50
2022-10-01T19:37:08.097Z,100603.25
2022-10-01T19:39:39.250Z,100612.47
2022-10-01T19:42:26.301Z,100613.16
2022-10-01T19:45:13.378Z,100621.66
2022-10-01T19:47:58.502Z,100616.19
2022-10-01T19:50:33.820Z,100622.13
2022-10-01T19:53:03.892Z,100619.31
2022-10-01T19:55:38.713Z,100622.47
2022-10-01T19:58:18.160Z,100612.16
2022-10-01T20:00:52.799Z,100628.06
2022-10-01T20:03:35.253Z,100624.06
2022-10-01T20:06:09.522Z,100634.34
2022-10-01T20:08:58.695Z,100632.16
2022-10-01T20:11:31.857Z,100637.28
2022-10-01T20:14:42.061Z,100632.44
2022-10-01T20:17:37.721Z,100638.13
2022-10-01T20:20:41.279Z,100642.72
2022-10-01T20:23:36.879Z,100649.38
2022-10-01T20:26:26.156Z,100656.84
2022-10-01T20:29:06.871Z,100650.78
2022-10-01T20:32:03.184Z,100660.34
2022-10-01T20:35:08.667Z,100661.16
2022-10-01T20:38:00.988Z,100660.19
2022-10-01T20:40:40.075Z,100654.78
2022-10-01T20:43:20.435Z,100659.47
2022-10-01T20:45:52.564Z,100667.03
2022-10-01T20:48:29.669Z,100656.97
2022-10-01T20:51:09.623Z,100662.25
2022-10-01T20:53:53.138Z,100665.06
2022-10-01T20:56:33.299Z,100653.16
2022-10-01T20:59:38.701Z,100660.34
2022-10-01T21:02:25.299Z,100669.34
2022-10-01T21:05:07.628Z,100667.00
2022-10-01T21:07:40.150Z,100663.13
2022-10-01T21:10:27.003Z,100669.63
2022-10-01T21:13:26.879Z,100691.88
2022-10-01T21:16:16.924Z,100684.84
2022-10-01T21:19:14.080Z,100691.63
2022-10-01T21:22:04.933Z,100691.22
2022-10-01T21:25:03.529Z,100713.88
2022-10-01T21:28:05.221Z,100712.09
2022-10-01T21:31:01.883Z,100708.94
2022-10-01T21:33:38.600Z,100713.78
2022-10-01T21:36:19.354Z,100716.94
2022-10-01T21:38:52.247Z,100711.97
2022-10-01T21:41:23.644Z,100719.84
2022-10-01T21:44:19.466Z,100721.34
2022-10-01T21:46:58.828Z,100721.22
2022-10-01T21:49:38.293Z,100717.63
2022-10-01T21:52:30.635Z,100726.06
2022-10-01T21:55:20.024Z,100721.06
2022-10-01T21:58:02.932Z,100722.19
2022-10-01T22:00:32.682Z,100737.81
2022-10-01T22:03:19.763Z,100746.25
2022-10-01T22:06:21.019Z,100739.63
2022-10-01T22:09:07.447Z,100744.31
2022-10-01T22:11:39.700Z,100746.09
2022-10-01T22:14:17.621Z,100749.84
2022-10-01T22:16:57.982Z,100741.00
2022-10-01T22:19:37.227Z,100738.75
2022-10-01T22:22:31.122Z,100740.56
2022-10-01T22:25:00.868Z,100736.44
2022-10-01T22:27:38.571Z,100737.25
2022-10-01T22:30:15.969Z,100732.28
2022-10-01T22:32:53.309Z,100734.06
2022-10-01T22:35:44.968Z,100736.69
2022-10-01T22:38:19.825Z,100725.09
2022-10-01T22:41:10.842Z,100722.75
2022-10-01T22:43:41.552Z,100731.34
2022-10-01T22:46:34.557Z,100732.41
2022-10-01T22:49:38.582Z,100725.63
2022-10-01T22:52:24.246Z,100736.97
2022-10-01T22:54:55.079Z,100739.31
2022-10-01T22:57:54.455Z,100740.28
2022-10-01T23:00:23.014Z,100753.00
2022-10-01T23:03:12.503Z,100760.59
2022-10-01T23:06:11.051Z,100761.31
2022-10-01T23:08:41.920Z,100776.50
2022-10-01T23:11:28.352Z,100772.47
2022-10-01T23:14:18.453Z,100791.53
2022-10-01T23:17:16.914Z,100784.63
2022-10-01T23:20:16.417Z,100790.28
2022-10-01T23:23:19.822Z,100806.31
2022-10-01T23:26:00.138Z,100812.78
2022-10-01T23:28:51.220Z,100818.03
2022-10-01T23:31:53.609Z,100814.97
2022-10-01T23:34:21.795Z,100807.97
2022-10-01T23:37:21.635Z,100799.22
2022-10-01T23:40:14.390Z,100822.59
2022-10-01T23:42:46.258Z,100833.22
2022-10-01T23:45:40.092Z,100820.81
2022-10-01T23:48:22.193Z,100840.16
2022-10-01T23:50:50.314Z,100840.75
2022-10-01T23:53:25.194Z,100836.31
2022-10-01T23:56:30.506Z,100830.91
2022-10-01T23:59:24.220Z,100833.69
